createdAt,value
2023-02-06T00:00:40.521Z,89.32
2023-02-06T00:01:28.058Z,88.88
2023-02-06T00:02:15.458Z,88.96
2023-02-06T00:03:02.733Z,89.26
2023-02-06T00:03:49.981Z,89.33
2023-02-06T00:04:36.982Z,89.87
2023-02-06T00:05:24.215Z,89.77
2023-02-06T00:06:11.756Z,89.31
2023-02-06T00:06:58.864Z,89.30
2023-02-06T00:07:46.174Z,89.75
2023-02-06T00:08:35.604Z,90.42
2023-02-06T00:09:22.636Z,90.67
2023-02-06T00:10:09.989Z,90.52
2023-02-06T00:10:57.270Z,90.25
2023-02-06T00:11:44.334Z,90.19
2023-02-06T00:12:31.261Z,90.11
2023-02-06T00:13:18.587Z,90.59
2023-02-06T00:14:07.175Z,90.31
2023-02-06T00:14:54.141Z,90.20
2023-02-06T00:15:41.298Z,90.66
2023-02-06T00:16:31.418Z,90.73
2023-02-06T00:17:18.469Z,90.35
2023-02-06T00:18:05.577Z,90.23
2023-02-06T00:18:54.193Z,89.65
2023-02-06T00:19:41.354Z,89.23
2023-02-06T00:20:28.350Z,88.89
2023-02-06T00:21:15.956Z,89.34
2023-02-06T00:22:03.158Z,90.23
2023-02-06T00:22:50.623Z,90.07
2023-02-06T00:23:37.878Z,89.70
2023-02-06T00:24:25.013Z,89.96
2023-02-06T00:25:12.729Z,90.34
2023-02-06T00:25:59.813Z,90.17
2023-02-06T00:26:46.920Z,89.58
2023-02-06T00:27:34.341Z,89.39
2023-02-06T00:28:21.441Z,88.70
2023-02-06T00:29:08.426Z,88.69
2023-02-06T00:29:55.583Z,88.37
2023-02-06T00:30:42.574Z,88.50
2023-02-06T00:31:29.709Z,88.44
2023-02-06T00:32:16.756Z,88.16
2023-02-06T00:33:03.831Z,88.18
2023-02-06T00:33:51.056Z,88.24
2023-02-06T00:34:40.475Z,88.45
2023-02-06T00:35:27.512Z,88.63
2023-02-06T00:36:14.874Z,89.66
2023-02-06T00:37:02.148Z,90.75
2023-02-06T00:37:49.472Z,91.01
2023-02-06T00:38:39.987Z,90.90
2023-02-06T00:39:27.192Z,90.43
2023-02-06T00:40:14.058Z,90.07
2023-02-06T00:41:01.220Z,90.02
2023-02-06T00:41:48.144Z,90.01
2023-02-06T00:42:35.308Z,90.11
2023-02-06T00:43:22.549Z,90.51
2023-02-06T00:44:09.563Z,90.47
2023-02-06T00:44:56.714Z,89.94
2023-02-06T00:45:43.745Z,90.38
2023-02-06T00:46:32.899Z,90.62
2023-02-06T00:47:20.031Z,90.37
2023-02-06T00:48:07.353Z,89.98
2023-02-06T00:48:54.587Z,89.85
2023-02-06T00:49:41.505Z,89.53
2023-02-06T00:50:28.462Z,89.27
2023-02-06T00:51:15.381Z,90.69
2023-02-06T00:52:02.498Z,91.26
2023-02-06T00:52:49.674Z,91.32
2023-02-06T00:53:36.731Z,91.25
2023-02-06T00:54:23.740Z,90.68
2023-02-06T00:55:11.308Z,90.17
2023-02-06T00:55:58.220Z,90.21
2023-02-06T00:56:45.110Z,90.97
2023-02-06T00:57:32.149Z,91.19
2023-02-06T00:58:19.207Z,91.18
2023-02-06T00:59:06.848Z,90.96
2023-02-06T00:59:54.609Z,90.67
2023-02-06T01:00:41.768Z,90.65
2023-02-06T01:01:29.371Z,91.56
2023-02-06T01:02:16.340Z,92.29
2023-02-06T01:03:03.697Z,92.22
2023-02-06T01:03:50.713Z,92.02
2023-02-06T01:04:37.684Z,91.83
2023-02-06T01:05:25.070Z,92.34
2023-02-06T01:06:12.097Z,92.34
2023-02-06T01:06:59.065Z,91.87
2023-02-06T01:07:46.112Z,92.05
2023-02-06T01:08:33.265Z,93.08
2023-02-06T01:09:20.296Z,93.20
2023-02-06T01:10:09.361Z,93.37
2023-02-06T01:10:56.459Z,93.02
2023-02-06T01:11:43.434Z,92.18
2023-02-06T01:12:30.464Z,92.02
2023-02-06T01:13:17.495Z,92.23
2023-02-06T01:14:04.588Z,92.96
2023-02-06T01:14:51.706Z,93.41
2023-02-06T01:17:29.779Z,92.81
2023-02-06T01:18:16.863Z,93.04
2023-02-06T01:19:04.000Z,93.09
2023-02-06T01:19:51.186Z,92.79
2023-02-06T01:20:40.377Z,92.63
2023-02-06T01:21:27.428Z,92.85
2023-02-06T01:22:14.421Z,92.50
2023-02-06T01:23:01.600Z,92.42
2023-02-06T01:23:50.971Z,92.23
2023-02-06T01:24:38.069Z,92.33
2023-02-06T01:25:25.214Z,92.96
2023-02-06T01:26:16.456Z,93.46
2023-02-06T01:27:04.002Z,93.25
2023-02-06T01:27:51.209Z,92.69
2023-02-06T01:28:39.847Z,93.21
2023-02-06T01:29:26.896Z,93.59
2023-02-06T01:30:14.386Z,93.41
2023-02-06T01:31:01.703Z,92.74
2023-02-06T01:31:48.751Z,92.28
2023-02-06T01:32:39.895Z,92.02
2023-02-06T01:33:27.012Z,91.68
2023-02-06T01:34:14.614Z,91.58
2023-02-06T01:35:01.712Z,91.38
2023-02-06T01:35:56.648Z,91.03
2023-02-06T01:36:43.710Z,91.07
2023-02-06T01:37:30.936Z,91.39
2023-02-06T01:38:18.335Z,91.11
2023-02-06T01:39:06.762Z,90.89
2023-02-06T01:39:53.892Z,90.59
2023-02-06T01:40:40.887Z,90.48
2023-02-06T01:41:27.933Z,90.80
2023-02-06T01:42:15.054Z,90.95
2023-02-06T01:43:02.392Z,90.91
2023-02-06T01:44:08.256Z,91.00
2023-02-06T01:45:20.220Z,90.97
2023-02-06T01:46:08.155Z,90.54
2023-02-06T01:46:56.779Z,90.57
2023-02-06T01:47:43.951Z,90.29
2023-02-06T01:48:44.212Z,90.32
2023-02-06T01:49:37.406Z,90.21
2023-02-06T01:50:24.531Z,90.62
2023-02-06T01:51:21.035Z,90.99
2023-02-06T01:52:17.439Z,91.20
2023-02-06T01:53:06.393Z,91.68
2023-02-06T01:54:05.033Z,91.86
2023-02-06T01:54:58.699Z,91.85
2023-02-06T01:55:48.061Z,91.90
2023-02-06T01:56:43.522Z,91.80
2023-02-06T01:57:30.864Z,92.04
2023-02-06T01:58:22.176Z,92.20
2023-02-06T01:59:09.418Z,92.63
2023-02-06T02:00:00.282Z,92.75
2023-02-06T02:00:48.534Z,92.43
2023-02-06T02:01:35.677Z,92.45
2023-02-06T02:02:24.200Z,92.33
2023-02-06T02:03:11.827Z,92.49
2023-02-06T02:04:05.211Z,93.32
2023-02-06T02:04:52.587Z,93.52
2023-02-06T02:05:41.224Z,93.84
2023-02-06T02:06:28.551Z,93.80
2023-02-06T02:07:22.207Z,93.53
2023-02-06T02:08:19.852Z,93.67
2023-02-06T02:09:07.647Z,94.01
2023-02-06T02:09:55.056Z,94.05
2023-02-06T02:10:42.219Z,93.48
2023-02-06T02:11:34.872Z,92.91
2023-02-06T02:12:22.068Z,92.51
2023-02-06T02:13:10.090Z,92.26
2023-02-06T02:13:57.375Z,91.98
2023-02-06T02:14:46.710Z,91.52
2023-02-06T02:16:17.145Z,91.54
2023-02-06T02:17:19.123Z,91.37
2023-02-06T02:18:42.308Z,92.10
2023-02-06T02:19:53.897Z,92.29
2023-02-06T02:21:02.421Z,92.05
2023-02-06T02:22:00.518Z,93.05
2023-02-06T02:23:02.650Z,93.18
2023-02-06T02:23:54.491Z,92.53
2023-02-06T02:24:55.700Z,92.56
2023-02-06T02:26:03.809Z,92.33
2023-02-06T02:27:02.993Z,92.07
2023-02-06T02:28:08.592Z,92.12
2023-02-06T02:29:04.402Z,91.78
2023-02-06T02:30:11.903Z,92.03
2023-02-06T02:31:26.395Z,92.21
2023-02-06T02:32:42.212Z,93.50
2023-02-06T02:33:54.169Z,98.25
2023-02-06T02:34:53.698Z,98.12
2023-02-06T02:35:52.748Z,97.35
2023-02-06T02:36:47.210Z,97.48
2023-02-06T02:37:42.603Z,96.48
2023-02-06T02:39:01.113Z,96.53
2023-02-06T02:40:01.716Z,96.06
2023-02-06T02:40:58.722Z,95.01
2023-02-06T02:41:54.074Z,94.86
2023-02-06T02:42:47.534Z,94.49
2023-02-06T02:43:45.284Z,94.41
2023-02-06T02:44:55.351Z,94.71
2023-02-06T02:45:59.235Z,94.58
2023-02-06T02:46:49.976Z,94.22
2023-02-06T02:47:45.964Z,93.88
2023-02-06T02:48:39.083Z,93.92
2023-02-06T02:49:29.774Z,93.94
2023-02-06T02:50:18.729Z,93.49
2023-02-06T02:51:06.121Z,93.64
2023-02-06T02:51:53.828Z,93.53
2023-02-06T02:52:40.903Z,93.15
2023-02-06T02:53:28.496Z,93.11
2023-02-06T02:54:15.537Z,92.86
2023-02-06T02:55:03.453Z,92.87
2023-02-06T02:55:50.881Z,92.65
2023-02-06T02:56:38.228Z,93.08
2023-02-06T02:57:29.558Z,92.72
2023-02-06T02:58:20.277Z,92.73
2023-02-06T02:59:20.531Z,92.81
2023-02-06T03:00:08.088Z,92.81
2023-02-06T03:01:04.241Z,92.49
2023-02-06T03:02:01.192Z,92.33
2023-02-06T03:02:49.637Z,92.39
2023-02-06T03:03:38.712Z,92.69
2023-02-06T03:04:40.251Z,92.75
2023-02-06T03:05:28.272Z,92.47
2023-02-06T03:06:54.985Z,92.33
2023-02-06T03:07:56.533Z,92.11
2023-02-06T03:08:49.942Z,92.36
2023-02-06T03:10:03.352Z,92.25
2023-02-06T03:11:15.709Z,92.10
2023-02-06T03:12:45.799Z,92.30
2023-02-06T03:13:39.159Z,92.51
2023-02-06T03:14:33.019Z,92.42
2023-02-06T03:15:41.632Z,92.18
2023-02-06T03:16:57.865Z,92.11
2023-02-06T03:18:19.867Z,91.93
2023-02-06T03:19:23.610Z,92.10
2023-02-06T03:20:12.112Z,92.40
2023-02-06T03:21:00.509Z,92.41
2023-02-06T03:21:48.087Z,92.44
2023-02-06T03:22:36.130Z,92.11
2023-02-06T03:23:27.648Z,92.02
2023-02-06T03:24:18.877Z,92.16
2023-02-06T03:25:11.180Z,92.36
2023-02-06T03:26:01.300Z,92.95
2023-02-06T03:26:49.780Z,93.62
2023-02-06T03:27:38.971Z,93.72
2023-02-06T03:28:29.208Z,94.03
2023-02-06T03:29:17.359Z,93.90
2023-02-06T03:30:06.419Z,93.59
2023-02-06T03:30:56.625Z,93.21
2023-02-06T03:31:53.737Z,92.92
2023-02-06T03:32:46.752Z,92.62
2023-02-06T03:33:41.006Z,92.39
2023-02-06T03:34:48.672Z,92.24
2023-02-06T03:35:37.905Z,92.18
2023-02-06T03:36:25.219Z,91.90
2023-02-06T03:37:13.299Z,91.28
2023-02-06T03:38:00.832Z,91.29
2023-02-06T03:38:50.702Z,91.49
2023-02-06T03:39:38.022Z,91.12
2023-02-06T03:40:27.626Z,91.21
2023-02-06T03:41:16.319Z,91.94
2023-02-06T03:42:05.166Z,92.70
2023-02-06T03:42:57.373Z,93.18
2023-02-06T03:43:46.670Z,92.94
2023-02-06T03:44:40.598Z,92.78
2023-02-06T03:45:37.988Z,92.39
2023-02-06T03:46:26.560Z,92.51
2023-02-06T03:47:15.819Z,92.84
2023-02-06T03:48:06.506Z,92.90
2023-02-06T03:48:57.058Z,92.75
2023-02-06T03:49:43.896Z,92.39
2023-02-06T03:50:32.371Z,92.00
2023-02-06T03:51:26.537Z,91.54
2023-02-06T03:52:16.579Z,91.63
2023-02-06T03:53:04.859Z,92.36
2023-02-06T03:53:56.217Z,92.17
2023-02-06T03:54:47.246Z,91.61
2023-02-06T03:55:34.725Z,91.20
2023-02-06T03:56:44.523Z,90.88
2023-02-06T03:57:32.760Z,91.00
2023-02-06T03:58:19.898Z,91.37
2023-02-06T03:59:06.970Z,91.52
2023-02-06T03:59:54.148Z,91.57
2023-02-06T04:00:42.672Z,91.69
2023-02-06T04:01:29.924Z,92.77
2023-02-06T04:02:17.466Z,93.52
2023-02-06T04:03:05.385Z,93.71
2023-02-06T04:03:52.621Z,93.71
2023-02-06T04:04:42.845Z,93.58
2023-02-06T04:05:30.225Z,93.20
2023-02-06T04:06:17.446Z,93.02
2023-02-06T04:07:25.621Z,92.78
2023-02-06T04:08:12.672Z,93.05
2023-02-06T04:08:59.716Z,93.30
2023-02-06T04:09:46.780Z,93.27
2023-02-06T04:10:34.028Z,93.02
2023-02-06T04:11:21.121Z,92.89
2023-02-06T04:12:08.441Z,93.23
2023-02-06T04:12:55.589Z,93.50
2023-02-06T04:13:42.775Z,93.23
2023-02-06T04:14:29.741Z,93.06
2023-02-06T04:15:16.816Z,92.96
2023-02-06T04:16:04.334Z,92.96
2023-02-06T04:16:52.002Z,93.02
2023-02-06T04:17:53.575Z,93.06
2023-02-06T04:18:45.087Z,92.73
2023-02-06T04:19:32.602Z,92.67
2023-02-06T04:20:20.685Z,93.00
2023-02-06T04:21:08.397Z,92.98
2023-02-06T04:21:55.490Z,92.90
2023-02-06T04:22:42.856Z,93.20
2023-02-06T04:23:29.979Z,93.22
2023-02-06T04:24:17.196Z,93.00
2023-02-06T04:25:04.335Z,92.99
2023-02-06T04:25:54.540Z,92.47
2023-02-06T04:26:41.742Z,92.32
2023-02-06T04:27:28.925Z,92.08
2023-02-06T04:28:16.017Z,91.91
2023-02-06T04:29:03.151Z,92.59
2023-02-06T04:29:52.551Z,92.99
2023-02-06T04:30:39.803Z,92.94
2023-02-06T04:31:27.249Z,92.72
2023-02-06T04:32:14.336Z,92.31
2023-02-06T04:33:01.415Z,92.51
2023-02-06T04:33:48.487Z,92.37
2023-02-06T04:34:36.844Z,92.32
2023-02-06T04:35:24.072Z,92.33
2023-02-06T04:36:11.167Z,92.31
2023-02-06T04:36:58.778Z,92.49
2023-02-06T04:37:45.950Z,92.61
2023-02-06T04:38:33.046Z,92.55
2023-02-06T04:39:20.129Z,92.55
2023-02-06T04:40:07.561Z,92.44
2023-02-06T04:40:54.749Z,92.42
2023-02-06T04:41:42.088Z,92.45
2023-02-06T04:42:29.327Z,92.65
2023-02-06T04:43:16.393Z,92.83
2023-02-06T04:44:03.485Z,92.64
2023-02-06T04:44:50.809Z,92.13
2023-02-06T04:45:38.266Z,91.66
2023-02-06T04:46:25.884Z,91.83
2023-02-06T04:47:13.109Z,91.65
2023-02-06T04:48:00.231Z,91.76
2023-02-06T04:48:47.982Z,91.89
2023-02-06T04:49:35.139Z,91.75
2023-02-06T04:50:22.318Z,92.06
2023-02-06T04:51:09.540Z,92.08
2023-02-06T04:51:56.882Z,91.85
2023-02-06T04:52:43.999Z,91.79
2023-02-06T04:53:31.112Z,91.47
2023-02-06T04:54:18.279Z,91.39
2023-02-06T04:55:05.541Z,91.22
2023-02-06T04:55:52.595Z,91.65
2023-02-06T04:56:39.788Z,91.48
2023-02-06T04:57:27.398Z,91.35
2023-02-06T04:58:14.559Z,91.70
2023-02-06T04:59:01.886Z,91.60
2023-02-06T04:59:49.140Z,91.33
2023-02-06T05:00:38.757Z,91.59
2023-02-06T05:01:26.259Z,92.03
2023-02-06T05:02:13.401Z,91.99
2023-02-06T05:03:00.463Z,92.21
2023-02-06T05:03:47.854Z,92.35
2023-02-06T05:04:35.076Z,92.57
2023-02-06T05:05:22.327Z,92.39
2023-02-06T05:06:09.370Z,92.51
2023-02-06T05:06:56.509Z,92.11
2023-02-06T05:07:43.498Z,91.88
2023-02-06T05:08:31.121Z,91.96
2023-02-06T05:09:18.213Z,91.83
2023-02-06T05:10:05.624Z,91.65
2023-02-06T05:10:52.693Z,91.87
2023-02-06T05:11:39.955Z,91.79
2023-02-06T05:12:30.239Z,91.47
2023-02-06T05:13:17.351Z,91.25
2023-02-06T05:14:04.698Z,91.25
2023-02-06T05:14:52.164Z,91.03
2023-02-06T05:15:39.862Z,91.09
2023-02-06T05:16:27.103Z,91.09
2023-02-06T05:17:14.198Z,91.33
2023-02-06T05:18:01.260Z,91.48
2023-02-06T05:18:48.367Z,91.32
2023-02-06T05:19:35.542Z,91.31
2023-02-06T05:20:22.599Z,92.16
2023-02-06T05:21:09.707Z,92.47
2023-02-06T05:21:56.989Z,92.88
2023-02-06T05:22:44.104Z,92.94
2023-02-06T05:23:32.875Z,92.60
2023-02-06T05:24:19.960Z,92.25
2023-02-06T05:25:07.605Z,91.89
2023-02-06T05:25:54.793Z,91.59
2023-02-06T05:26:41.768Z,91.38
2023-02-06T05:27:28.860Z,91.30
2023-02-06T05:28:15.916Z,91.60
2023-02-06T05:29:03.195Z,92.48
2023-02-06T05:29:50.403Z,93.01
2023-02-06T05:30:37.442Z,92.76
2023-02-06T05:31:24.713Z,92.71
2023-02-06T05:32:11.844Z,92.43
2023-02-06T05:32:59.121Z,91.98
2023-02-06T05:33:47.455Z,91.72
2023-02-06T05:34:34.522Z,91.72
2023-02-06T05:35:21.623Z,91.68
2023-02-06T05:36:09.198Z,91.79
2023-02-06T05:36:56.240Z,92.07
2023-02-06T05:37:43.399Z,92.03
2023-02-06T05:38:30.864Z,92.26
2023-02-06T05:39:17.901Z,92.09
2023-02-06T05:40:06.731Z,91.87
2023-02-06T05:40:53.738Z,91.76
2023-02-06T05:41:40.872Z,91.77
2023-02-06T05:42:28.049Z,91.40
2023-02-06T05:43:15.126Z,91.23
2023-02-06T05:44:02.217Z,91.21
2023-02-06T05:44:49.280Z,91.63
2023-02-06T05:45:36.488Z,91.61
2023-02-06T05:46:24.012Z,91.53
2023-02-06T05:47:11.316Z,91.24
2023-02-06T05:47:58.394Z,91.40
2023-02-06T05:48:45.470Z,91.34
2023-02-06T05:49:32.536Z,91.25
2023-02-06T05:50:20.436Z,91.47
2023-02-06T05:51:07.736Z,91.55
2023-02-06T05:51:54.812Z,91.31
2023-02-06T05:52:42.283Z,91.15
2023-02-06T05:53:29.642Z,90.87
2023-02-06T05:54:18.626Z,90.74
2023-02-06T05:55:05.993Z,90.56
2023-02-06T05:55:53.158Z,90.64
2023-02-06T05:56:40.211Z,90.40
2023-02-06T05:57:27.432Z,90.28
2023-02-06T05:58:14.615Z,90.10
2023-02-06T05:59:01.696Z,91.08
2023-02-06T05:59:48.760Z,91.80
2023-02-06T06:00:35.805Z,92.43
2023-02-06T06:01:22.900Z,92.98
2023-02-06T06:02:10.221Z,92.71
2023-02-06T06:02:57.273Z,92.12
2023-02-06T06:03:44.420Z,91.70
2023-02-06T06:04:31.633Z,91.23
2023-02-06T06:05:18.798Z,90.94
2023-02-06T06:06:06.785Z,90.66
2023-02-06T06:06:53.738Z,90.60
2023-02-06T06:07:41.123Z,90.55
2023-02-06T06:08:28.122Z,90.82
2023-02-06T06:09:15.261Z,91.35
2023-02-06T06:10:02.731Z,91.42
2023-02-06T06:10:53.370Z,90.99
2023-02-06T06:11:40.261Z,90.70
2023-02-06T06:12:27.310Z,90.27
2023-02-06T06:13:14.612Z,89.90
2023-02-06T06:14:01.792Z,90.05
2023-02-06T06:14:49.164Z,90.29
2023-02-06T06:15:36.642Z,90.05
2023-02-06T06:16:24.100Z,89.95
2023-02-06T06:17:11.347Z,89.68
2023-02-06T06:17:58.714Z,89.71
2023-02-06T06:18:45.924Z,89.50
2023-02-06T06:19:33.036Z,89.82
2023-02-06T06:20:20.236Z,89.96
2023-02-06T06:21:07.333Z,89.91
2023-02-06T06:21:55.596Z,90.12
2023-02-06T06:22:44.138Z,90.22
2023-02-06T06:23:31.200Z,90.49
2023-02-06T06:24:18.304Z,90.45
2023-02-06T06:25:08.035Z,90.39
2023-02-06T06:25:55.250Z,89.94
2023-02-06T06:26:42.436Z,89.63
2023-02-06T06:27:29.504Z,89.33
2023-02-06T06:28:17.244Z,89.18
2023-02-06T06:29:05.345Z,89.21
2023-02-06T06:29:55.320Z,89.28
2023-02-06T06:30:42.638Z,89.43
2023-02-06T06:31:29.779Z,89.45
2023-02-06T06:32:16.889Z,89.41
2023-02-06T06:33:04.190Z,89.49
2023-02-06T06:33:51.656Z,89.65
2023-02-06T06:34:38.775Z,89.76
2023-02-06T06:35:26.375Z,89.95
2023-02-06T06:36:14.564Z,89.55
2023-02-06T06:37:03.723Z,89.61
2023-02-06T06:37:52.771Z,89.56
2023-02-06T06:38:39.873Z,89.88
2023-02-06T06:39:26.906Z,90.01
2023-02-06T06:40:14.612Z,89.93
2023-02-06T06:41:01.642Z,89.42
2023-02-06T06:41:48.679Z,89.35
2023-02-06T06:42:35.865Z,89.34
2023-02-06T06:43:23.066Z,89.11
2023-02-06T06:44:10.152Z,89.15
2023-02-06T06:44:57.261Z,88.78
2023-02-06T06:45:44.400Z,88.49
2023-02-06T06:46:31.690Z,88.76
2023-02-06T06:47:18.858Z,89.03
2023-02-06T06:48:06.206Z,88.88
2023-02-06T06:48:54.092Z,88.60
2023-02-06T06:49:41.129Z,88.65
2023-02-06T06:50:28.345Z,88.55
2023-02-06T06:51:15.436Z,88.42
2023-02-06T06:52:02.669Z,88.48
2023-02-06T06:52:49.742Z,88.93
2023-02-06T06:53:40.572Z,89.55
2023-02-06T06:54:27.784Z,89.71
2023-02-06T06:55:14.770Z,89.79
2023-02-06T06:56:06.648Z,89.42
2023-02-06T06:56:53.742Z,89.06
2023-02-06T06:57:40.838Z,88.99
2023-02-06T06:58:27.936Z,88.92
2023-02-06T06:59:15.081Z,88.81
2023-02-06T07:00:02.488Z,88.81
2023-02-06T07:00:49.700Z,88.91
2023-02-06T07:01:36.870Z,88.83
2023-02-06T07:02:24.101Z,88.83
2023-02-06T07:03:12.345Z,88.84
2023-02-06T07:04:00.344Z,88.38
2023-02-06T07:04:48.610Z,88.34
2023-02-06T07:05:36.485Z,88.09
2023-02-06T07:06:23.809Z,87.73
2023-02-06T07:07:10.997Z,87.77
2023-02-06T07:07:58.161Z,87.26
2023-02-06T07:08:45.279Z,87.64
2023-02-06T07:09:32.469Z,87.45
2023-02-06T07:10:19.749Z,87.36
2023-02-06T07:11:06.803Z,87.82
2023-02-06T07:11:54.303Z,87.71
2023-02-06T07:12:41.480Z,87.62
2023-02-06T07:13:28.644Z,87.59
2023-02-06T07:14:16.032Z,87.49
2023-02-06T07:15:03.315Z,87.20
2023-02-06T07:15:50.733Z,87.08
2023-02-06T07:16:38.392Z,87.46
2023-02-06T07:17:25.521Z,87.29
2023-02-06T07:18:12.701Z,86.95
2023-02-06T07:18:59.992Z,86.89
2023-02-06T07:19:48.413Z,87.09
2023-02-06T07:20:38.270Z,87.09
2023-02-06T07:21:25.577Z,86.86
2023-02-06T07:22:12.944Z,86.69
2023-02-06T07:23:02.108Z,86.56
2023-02-06T07:23:49.307Z,86.21
2023-02-06T07:24:36.547Z,86.18
2023-02-06T07:25:24.036Z,86.05
2023-02-06T07:26:11.285Z,85.87
2023-02-06T07:26:58.384Z,85.63
2023-02-06T07:27:45.476Z,85.47
2023-02-06T07:28:33.576Z,85.58
2023-02-06T07:29:20.696Z,85.59
2023-02-06T07:30:08.552Z,85.53
2023-02-06T07:30:55.907Z,86.33
2023-02-06T07:31:43.171Z,86.62
2023-02-06T07:32:30.363Z,86.96
2023-02-06T07:33:17.388Z,86.79
2023-02-06T07:34:04.887Z,86.89
2023-02-06T07:34:54.125Z,86.91
2023-02-06T07:35:43.149Z,85.91
2023-02-06T07:36:30.688Z,86.09
2023-02-06T07:37:17.977Z,86.47
2023-02-06T07:38:07.391Z,85.95
2023-02-06T07:38:54.507Z,85.58
2023-02-06T07:39:41.693Z,84.83
2023-02-06T07:40:39.664Z,84.60
2023-02-06T07:41:31.575Z,84.48
2023-02-06T07:42:19.205Z,84.18
2023-02-06T07:43:09.390Z,83.54
2023-02-06T07:43:56.407Z,82.79
2023-02-06T07:44:43.592Z,82.13
2023-02-06T07:45:30.660Z,82.28
2023-02-06T07:46:17.804Z,80.99
2023-02-06T07:47:06.032Z,80.51
2023-02-06T07:47:54.129Z,80.88
2023-02-06T07:48:41.277Z,81.05
2023-02-06T07:49:28.430Z,81.12
2023-02-06T07:50:15.607Z,80.95
2023-02-06T07:51:07.703Z,80.80
2023-02-06T07:51:54.811Z,80.64
2023-02-06T07:52:41.891Z,80.58
2023-02-06T07:53:29.133Z,79.75
2023-02-06T07:54:16.557Z,79.69
2023-02-06T07:55:03.692Z,79.18
2023-02-06T07:55:50.878Z,79.13
2023-02-06T07:56:38.555Z,78.39
2023-02-06T07:57:25.822Z,76.90
2023-02-06T07:58:12.914Z,76.71
2023-02-06T07:59:00.217Z,76.46
2023-02-06T07:59:47.505Z,76.69
2023-02-06T08:00:34.646Z,76.75
2023-02-06T08:01:22.497Z,77.24
2023-02-06T08:02:12.312Z,77.67
2023-02-06T08:02:59.667Z,76.31
2023-02-06T08:03:46.723Z,76.41
2023-02-06T08:04:35.901Z,76.34
2023-02-06T08:05:22.994Z,76.28
2023-02-06T08:06:16.304Z,76.06
2023-02-06T08:07:04.872Z,76.51
2023-02-06T08:07:52.478Z,77.39
2023-02-06T08:08:39.565Z,76.65
2023-02-06T08:09:27.013Z,76.09
2023-02-06T08:10:14.095Z,76.78
2023-02-06T08:11:05.428Z,76.84
2023-02-06T08:11:52.544Z,76.98
2023-02-06T08:12:39.575Z,76.88
2023-02-06T08:13:26.645Z,76.18
2023-02-06T08:14:14.090Z,75.92
2023-02-06T08:15:01.175Z,75.84
2023-02-06T08:15:48.460Z,75.78
2023-02-06T08:16:37.727Z,75.56
2023-02-06T08:17:25.145Z,75.92
2023-02-06T08:18:12.470Z,75.52
2023-02-06T08:18:59.682Z,75.32
2023-02-06T08:19:46.890Z,75.31
2023-02-06T08:20:34.087Z,75.43
2023-02-06T08:21:23.351Z,75.64
2023-02-06T08:22:10.745Z,76.02
2023-02-06T08:22:58.016Z,76.31
2023-02-06T08:23:45.506Z,75.52
2023-02-06T08:24:32.928Z,75.73
2023-02-06T08:25:20.135Z,76.07
2023-02-06T08:26:10.749Z,75.75
2023-02-06T08:26:57.678Z,75.27
2023-02-06T08:27:46.894Z,74.88
2023-02-06T08:28:37.706Z,74.43
2023-02-06T08:29:26.595Z,73.77
2023-02-06T08:30:14.123Z,74.57
2023-02-06T08:31:02.710Z,74.85
2023-02-06T08:31:49.948Z,74.64
2023-02-06T08:32:37.255Z,74.19
2023-02-06T08:33:24.752Z,74.78
2023-02-06T08:34:14.255Z,74.80
2023-02-06T08:35:01.314Z,74.94
2023-02-06T08:35:48.536Z,74.97
2023-02-06T08:36:35.776Z,74.52
2023-02-06T08:37:24.674Z,74.26
2023-02-06T08:38:12.265Z,74.41
2023-02-06T08:39:00.865Z,74.69
2023-02-06T08:39:48.371Z,75.43
2023-02-06T08:40:35.735Z,75.45
2023-02-06T08:41:30.650Z,75.08
2023-02-06T08:42:18.345Z,75.71
2023-02-06T08:43:05.389Z,75.53
2023-02-06T08:43:55.624Z,75.22
2023-02-06T08:44:42.726Z,75.12
2023-02-06T08:45:29.776Z,75.21
2023-02-06T08:46:18.935Z,75.79
2023-02-06T08:47:10.516Z,75.78
2023-02-06T08:47:59.220Z,75.59
2023-02-06T08:48:46.878Z,74.96
2023-02-06T08:49:33.974Z,74.79
2023-02-06T08:50:23.106Z,74.72
2023-02-06T08:51:11.353Z,74.67
2023-02-06T08:51:59.995Z,73.64
2023-02-06T08:52:47.029Z,73.75
2023-02-06T08:53:34.369Z,72.80
2023-02-06T08:54:23.616Z,72.93
2023-02-06T08:55:11.079Z,70.58
2023-02-06T08:56:05.263Z,70.69
2023-02-06T08:56:54.109Z,70.86
2023-02-06T08:57:41.846Z,70.10
2023-02-06T08:58:29.299Z,69.37
2023-02-06T08:59:17.758Z,69.31
2023-02-06T09:00:05.548Z,70.47
2023-02-06T09:00:54.011Z,71.56
2023-02-06T09:01:41.406Z,71.47
2023-02-06T09:02:28.704Z,72.16
2023-02-06T09:03:15.847Z,72.58
2023-02-06T09:04:06.637Z,72.23
2023-02-06T09:04:53.642Z,72.41
2023-02-06T09:05:40.640Z,72.87
2023-02-06T09:06:28.430Z,72.66
2023-02-06T09:07:17.307Z,72.23
2023-02-06T09:08:04.739Z,70.17
2023-02-06T09:08:52.629Z,69.15
2023-02-06T09:09:39.656Z,69.69
2023-02-06T09:10:30.397Z,70.05
2023-02-06T09:11:19.293Z,69.44
2023-02-06T09:12:06.519Z,69.47
2023-02-06T09:12:55.941Z,70.01
2023-02-06T09:13:44.523Z,70.22
2023-02-06T09:14:31.860Z,68.50
2023-02-06T09:15:18.902Z,69.10
2023-02-06T09:16:06.940Z,69.48
2023-02-06T09:16:54.123Z,68.81
2023-02-06T09:17:41.357Z,69.31
2023-02-06T09:18:28.593Z,69.50
2023-02-06T09:19:15.547Z,69.30
2023-02-06T09:20:03.732Z,68.95
2023-02-06T09:20:51.997Z,69.51
2023-02-06T09:21:39.260Z,69.89
2023-02-06T09:22:28.294Z,69.58
2023-02-06T09:23:16.115Z,69.32
2023-02-06T09:24:07.920Z,69.08
2023-02-06T09:24:54.906Z,68.53
2023-02-06T09:25:42.099Z,68.59
2023-02-06T09:26:32.218Z,69.53
2023-02-06T09:27:19.477Z,68.95
2023-02-06T09:28:06.712Z,68.73
2023-02-06T09:28:54.748Z,69.53
2023-02-06T09:29:42.128Z,70.50
2023-02-06T09:30:29.338Z,70.02
2023-02-06T09:31:17.136Z,70.04
2023-02-06T09:32:04.519Z,69.87
2023-02-06T09:32:51.930Z,68.45
2023-02-06T09:33:39.827Z,68.30
2023-02-06T09:34:28.759Z,68.27
2023-02-06T09:35:18.200Z,67.58
2023-02-06T09:36:07.942Z,67.61
2023-02-06T09:36:57.667Z,66.92
2023-02-06T09:37:44.780Z,66.40
2023-02-06T09:38:31.970Z,66.19
2023-02-06T09:39:18.914Z,65.72
2023-02-06T09:40:06.478Z,66.29
2023-02-06T09:40:57.653Z,65.64
2023-02-06T09:41:51.493Z,65.87
2023-02-06T09:42:39.487Z,65.59
2023-02-06T09:43:26.601Z,63.90
2023-02-06T09:44:18.901Z,63.85
2023-02-06T09:45:26.690Z,64.03
2023-02-06T09:46:15.671Z,65.26
2023-02-06T09:47:23.647Z,66.18
2023-02-06T09:48:15.600Z,65.55
2023-02-06T09:49:08.388Z,66.21
2023-02-06T09:50:03.060Z,65.48
2023-02-06T09:51:30.415Z,64.91
2023-02-06T09:52:31.399Z,65.04
2023-02-06T09:53:24.209Z,65.31
2023-02-06T09:54:36.399Z,64.18
2023-02-06T09:55:26.720Z,63.96
2023-02-06T09:56:32.151Z,63.88
2023-02-06T09:57:27.218Z,63.84
2023-02-06T09:58:35.495Z,64.60
2023-02-06T09:59:22.556Z,62.96
2023-02-06T10:00:21.617Z,63.41
2023-02-06T10:01:23.961Z,63.48
2023-02-06T10:02:28.356Z,64.42
2023-02-06T10:03:22.223Z,63.09
2023-02-06T10:04:21.990Z,62.84
2023-02-06T10:05:29.291Z,62.05
2023-02-06T10:06:27.246Z,61.93
2023-02-06T10:07:39.184Z,62.08
2023-02-06T10:08:32.738Z,61.67
2023-02-06T10:09:26.664Z,62.07
2023-02-06T10:10:21.465Z,62.99
2023-02-06T10:11:14.813Z,62.66
2023-02-06T10:12:23.620Z,63.03
2023-02-06T10:13:23.819Z,62.59
2023-02-06T10:14:22.517Z,62.09
2023-02-06T10:15:39.928Z,61.04
2023-02-06T10:16:42.204Z,61.47
2023-02-06T10:17:46.475Z,60.91
2023-02-06T10:18:44.829Z,60.73
2023-02-06T10:19:44.230Z,61.64
2023-02-06T10:20:41.266Z,61.95
2023-02-06T10:21:41.710Z,61.46
2023-02-06T10:22:32.190Z,61.03
2023-02-06T10:23:40.041Z,62.33
2023-02-06T10:24:41.724Z,61.61
2023-02-06T10:25:37.705Z,60.72
2023-02-06T10:26:25.245Z,60.51
2023-02-06T10:27:18.717Z,60.92
2023-02-06T10:28:27.407Z,60.37
2023-02-06T10:29:28.040Z,60.25
2023-02-06T10:30:21.331Z,59.33
2023-02-06T10:31:16.979Z,58.89
2023-02-06T10:32:06.742Z,59.22
2023-02-06T10:33:14.413Z,59.48
2023-02-06T10:34:28.325Z,59.50
2023-02-06T10:35:18.004Z,60.64
2023-02-06T10:36:46.138Z,59.46
2023-02-06T10:38:11.082Z,59.46
2023-02-06T10:39:18.353Z,59.18
2023-02-06T10:40:31.663Z,58.46
2023-02-06T10:41:43.242Z,58.20
2023-02-06T10:42:37.569Z,58.77
2023-02-06T10:43:54.173Z,59.08
2023-02-06T10:45:19.627Z,59.88
2023-02-06T10:46:29.664Z,59.33
2023-02-06T10:47:26.102Z,60.44
2023-02-06T10:48:29.971Z,59.73
2023-02-06T10:49:50.844Z,58.78
2023-02-06T10:50:42.394Z,58.93